createdAt,value
2023-05-24T00:00:22.437Z,99618.85
2023-05-24T00:01:25.454Z,99626.78
2023-05-24T00:02:27.805Z,99621.19
2023-05-24T00:03:30.259Z,99622.20
2023-05-24T00:04:33.682Z,99625.93
2023-05-24T00:05:36.146Z,99623.40
2023-05-24T00:06:38.815Z,99621.75
2023-05-24T00:07:42.206Z,99619.86
2023-05-24T00:08:44.640Z,99616.35
2023-05-24T00:11:02.486Z,99624.95
2023-05-24T00:12:05.661Z,99621.47
2023-05-24T00:13:08.152Z,99621.09
2023-05-24T00:14:10.264Z,99625.96
2023-05-24T00:15:12.377Z,99623.73
2023-05-24T00:16:14.957Z,99618.82
2023-05-24T00:17:17.345Z,99626.55
2023-05-24T00:18:19.547Z,99622.44
2023-05-24T00:19:21.841Z,99624.49
2023-05-24T00:20:24.826Z,99629.61
2023-05-24T00:21:27.727Z,99628.66
2023-05-24T00:22:30.087Z,99625.52
2023-05-24T00:23:32.420Z,99626.02
2023-05-24T00:24:34.592Z,99618.13
2023-05-24T00:25:37.282Z,99623.68
2023-05-24T00:26:40.131Z,99622.03
2023-05-24T00:27:42.394Z,99627.59
2023-05-24T00:28:44.500Z,99621.07
2023-05-24T00:29:47.176Z,99622.47
2023-05-24T00:30:50.014Z,99626.54
2023-05-24T00:31:52.966Z,99624.20
2023-05-24T00:32:55.182Z,99623.00
2023-05-24T00:33:58.978Z,99624.69
2023-05-24T00:35:01.269Z,99623.84
2023-05-24T00:36:03.851Z,99626.09
2023-05-24T00:37:06.767Z,99619.21
2023-05-24T00:38:09.276Z,99623.08
2023-05-24T00:39:11.552Z,99621.06
2023-05-24T00:40:14.721Z,99623.56
2023-05-24T00:41:17.107Z,99625.25
2023-05-24T00:42:19.444Z,99626.73
2023-05-24T00:44:32.176Z,99626.46
2023-05-24T00:45:34.431Z,99622.07
2023-05-24T00:46:37.795Z,99624.77
2023-05-24T00:47:40.431Z,99627.66
2023-05-24T00:48:42.888Z,99632.38
2023-05-24T00:49:45.254Z,99633.58
2023-05-24T00:50:47.799Z,99628.38
2023-05-24T00:51:51.512Z,99632.93
2023-05-24T00:52:53.987Z,99630.23
2023-05-24T00:53:56.545Z,99630.43
2023-05-24T00:54:59.612Z,99625.85
2023-05-24T00:56:03.269Z,99628.55
2023-05-24T00:57:06.207Z,99627.73
2023-05-24T00:58:08.930Z,99630.43
2023-05-24T00:59:11.261Z,99630.43
2023-05-24T01:00:15.801Z,99631.92
2023-05-24T01:01:18.212Z,99630.52
2023-05-24T01:02:20.382Z,99630.36
2023-05-24T01:03:22.992Z,99624.77
2023-05-24T01:04:25.885Z,99632.02
2023-05-24T01:05:28.308Z,99623.92
2023-05-24T01:08:12.286Z,99628.59
2023-05-24T01:09:36.856Z,99627.73
2023-05-24T01:10:46.631Z,99624.00
2023-05-24T01:12:13.184Z,99624.64
2023-05-24T01:15:04.240Z,99620.38
2023-05-24T01:16:24.295Z,99625.76
2023-05-24T01:18:46.133Z,99628.38
2023-05-24T01:20:02.784Z,99631.02
2023-05-24T01:21:18.414Z,99633.06
2023-05-24T01:22:30.833Z,99634.08
2023-05-24T01:25:20.767Z,99630.79
2023-05-24T01:26:32.262Z,99637.45
2023-05-24T01:27:36.455Z,99640.80
2023-05-24T01:28:39.089Z,99642.45
2023-05-24T01:29:41.693Z,99643.30
2023-05-24T01:30:44.931Z,99636.90
2023-05-24T01:31:47.297Z,99631.31
2023-05-24T01:32:50.061Z,99636.70
2023-05-24T01:33:52.241Z,99639.75
2023-05-24T01:34:55.354Z,99639.30
2023-05-24T01:35:57.653Z,99634.27
2023-05-24T01:37:00.094Z,99632.58
2023-05-24T01:38:02.257Z,99637.97
2023-05-24T01:39:04.716Z,99641.31
2023-05-24T01:40:10.296Z,99631.38
2023-05-24T01:41:25.022Z,99635.92
2023-05-24T01:42:34.379Z,99633.63
2023-05-24T01:43:43.080Z,99633.14
2023-05-24T01:45:07.377Z,99636.19
2023-05-24T01:46:20.873Z,99636.19
2023-05-24T01:47:43.594Z,99640.21
2023-05-24T01:51:33.544Z,99639.64
2023-05-24T01:52:36.735Z,99639.72
2023-05-24T01:53:41.633Z,99640.37
2023-05-24T01:54:53.577Z,99645.56
2023-05-24T01:55:57.602Z,99644.72
2023-05-24T01:57:02.569Z,99642.70
2023-05-24T01:58:06.364Z,99643.35
2023-05-24T01:59:09.110Z,99647.54
2023-05-24T02:00:14.619Z,99642.14
2023-05-24T02:01:17.093Z,99649.87
2023-05-24T02:02:19.526Z,99642.63
2023-05-24T02:03:22.697Z,99648.87
2023-05-24T02:04:25.514Z,99649.03
2023-05-24T02:05:28.356Z,99647.34
2023-05-24T02:06:30.916Z,99638.25
2023-05-24T02:07:33.203Z,99635.39
2023-05-24T02:08:35.521Z,99641.42
2023-05-24T02:09:37.611Z,99636.88
2023-05-24T02:10:40.461Z,99636.88
2023-05-24T02:11:43.108Z,99639.73
2023-05-24T02:12:45.438Z,99644.28
2023-05-24T02:13:47.755Z,99649.23
2023-05-24T02:14:50.172Z,99646.21
2023-05-24T02:15:52.258Z,99645.92
2023-05-24T02:16:54.602Z,99646.12
2023-05-24T02:17:58.132Z,99648.16
2023-05-24T02:19:02.645Z,99648.98
2023-05-24T02:21:15.880Z,99648.19
2023-05-24T02:22:18.789Z,99648.45
2023-05-24T02:23:21.138Z,99648.91
2023-05-24T02:24:23.537Z,99649.59
2023-05-24T02:25:25.851Z,99651.08
2023-05-24T02:26:28.420Z,99647.17
2023-05-24T02:27:30.910Z,99656.77
2023-05-24T02:28:33.340Z,99653.87
2023-05-24T02:29:35.574Z,99657.24
2023-05-24T02:31:48.007Z,99653.98
2023-05-24T02:32:50.420Z,99668.63
2023-05-24T02:33:52.685Z,99661.94
2023-05-24T02:34:55.389Z,99664.98
2023-05-24T02:35:57.535Z,99665.83
2023-05-24T02:38:09.066Z,99656.77
2023-05-24T02:39:11.700Z,99664.44
2023-05-24T02:40:14.485Z,99658.52
2023-05-24T02:41:17.006Z,99656.47
2023-05-24T02:42:19.327Z,99657.31
2023-05-24T02:43:21.828Z,99656.64
2023-05-24T02:44:24.510Z,99653.48
2023-05-24T02:45:26.806Z,99663.78
2023-05-24T02:46:29.607Z,99663.30
2023-05-24T02:47:31.957Z,99660.60
2023-05-24T02:48:34.393Z,99661.28
2023-05-24T02:49:36.731Z,99659.23
2023-05-24T02:50:39.040Z,99659.69
2023-05-24T02:51:41.229Z,99663.72
2023-05-24T02:52:43.346Z,99656.95
2023-05-24T02:53:45.924Z,99663.45
2023-05-24T02:56:00.251Z,99655.88
2023-05-24T02:57:04.910Z,99658.82
2023-05-24T02:58:08.208Z,99659.30
2023-05-24T02:59:10.818Z,99660.80
2023-05-24T03:00:15.020Z,99657.09
2023-05-24T03:01:18.616Z,99662.28
2023-05-24T03:02:21.053Z,99656.53
2023-05-24T03:03:23.407Z,99660.06
2023-05-24T03:04:26.076Z,99659.22
2023-05-24T03:05:30.067Z,99654.84
2023-05-24T03:06:32.472Z,99658.22
2023-05-24T03:07:34.842Z,99661.56
2023-05-24T03:08:37.133Z,99655.83
2023-05-24T03:09:40.508Z,99662.52
2023-05-24T03:10:43.020Z,99658.45
2023-05-24T03:11:45.860Z,99660.41
2023-05-24T03:12:47.972Z,99662.38
2023-05-24T03:13:49.946Z,99662.45
2023-05-24T03:14:52.379Z,99658.37
2023-05-24T03:15:54.816Z,99656.13
2023-05-24T03:16:57.231Z,99663.84
2023-05-24T03:17:59.705Z,99666.01
2023-05-24T03:19:03.352Z,99662.09
2023-05-24T03:20:07.450Z,99665.07
2023-05-24T03:21:10.257Z,99668.61
2023-05-24T03:22:22.329Z,99663.21
2023-05-24T03:23:24.727Z,99665.61
2023-05-24T03:24:26.903Z,99661.83
2023-05-24T03:25:29.188Z,99660.14
2023-05-24T03:26:31.690Z,99659.49
2023-05-24T03:27:35.362Z,99669.81
2023-05-24T03:28:38.352Z,99670.38
2023-05-24T03:29:40.467Z,99663.75
2023-05-24T03:30:43.766Z,99666.70
2023-05-24T03:32:55.653Z,99663.84
2023-05-24T03:33:57.878Z,99661.92
2023-05-24T03:35:00.633Z,99661.56
2023-05-24T03:36:04.736Z,99661.39
2023-05-24T03:37:07.641Z,99664.57
2023-05-24T03:38:11.139Z,99666.70
2023-05-24T03:39:15.556Z,99659.94
2023-05-24T03:40:37.729Z,99664.12
2023-05-24T03:41:42.678Z,99664.97
2023-05-24T03:42:45.960Z,99660.95
2023-05-24T03:43:48.383Z,99666.06
2023-05-24T03:44:52.664Z,99663.73
2023-05-24T03:45:54.885Z,99666.63
2023-05-24T03:46:57.354Z,99664.94
2023-05-24T03:47:59.727Z,99660.72
2023-05-24T03:49:02.340Z,99659.54
2023-05-24T03:50:06.945Z,99662.72
2023-05-24T03:51:10.117Z,99666.70
2023-05-24T03:52:12.421Z,99674.27
2023-05-24T03:53:14.967Z,99676.41
2023-05-24T03:54:17.336Z,99670.64
2023-05-24T03:55:19.767Z,99671.12
2023-05-24T03:56:25.821Z,99675.11
2023-05-24T03:57:28.144Z,99671.19
2023-05-24T03:58:30.493Z,99675.38
2023-05-24T03:59:32.682Z,99682.30
2023-05-24T04:00:35.014Z,99672.31
2023-05-24T04:01:37.812Z,99681.25
2023-05-24T04:02:40.316Z,99681.90
2023-05-24T04:03:43.038Z,99681.73
2023-05-24T04:04:45.583Z,99673.43
2023-05-24T04:05:48.991Z,99671.58
2023-05-24T04:06:51.593Z,99673.06
2023-05-24T04:07:53.676Z,99679.10
2023-05-24T04:08:58.504Z,99684.13
2023-05-24T04:10:01.889Z,99675.87
2023-05-24T04:11:04.347Z,99680.22
2023-05-24T04:12:06.582Z,99677.35
2023-05-24T04:13:09.018Z,99675.30
2023-05-24T04:14:12.062Z,99679.69
2023-05-24T04:15:14.384Z,99678.64
2023-05-24T04:16:17.028Z,99673.23
2023-05-24T04:17:19.451Z,99679.69
2023-05-24T04:18:21.979Z,99676.98
2023-05-24T04:19:24.984Z,99687.58
2023-05-24T04:20:27.650Z,99677.42
2023-05-24T04:21:30.324Z,99678.09
2023-05-24T04:22:32.609Z,99676.04
2023-05-24T04:23:34.799Z,99673.98
2023-05-24T04:24:37.496Z,99685.45
2023-05-24T04:25:40.079Z,99680.70
2023-05-24T04:26:42.719Z,99683.20
2023-05-24T04:27:45.136Z,99682.18
2023-05-24T04:28:47.364Z,99683.03
2023-05-24T04:29:50.057Z,99690.28
2023-05-24T04:30:52.313Z,99683.03
2023-05-24T04:31:54.832Z,99683.87
2023-05-24T04:32:58.931Z,99688.86
2023-05-24T04:34:03.528Z,99685.99
2023-05-24T04:35:06.617Z,99687.65
2023-05-24T04:36:09.836Z,99690.18
2023-05-24T04:37:13.180Z,99684.44
2023-05-24T04:38:16.089Z,99684.06
2023-05-24T04:39:18.500Z,99685.55
2023-05-24T04:40:21.032Z,99691.38
2023-05-24T04:42:32.639Z,99687.65
2023-05-24T04:43:34.777Z,99688.78
2023-05-24T04:44:37.317Z,99688.78
2023-05-24T04:45:39.527Z,99695.02
2023-05-24T04:46:42.405Z,99697.73
2023-05-24T04:47:45.311Z,99694.18
2023-05-24T04:48:47.751Z,99702.28
2023-05-24T04:49:49.984Z,99700.22
2023-05-24T04:50:54.692Z,99702.75
2023-05-24T04:51:57.628Z,99704.23
2023-05-24T04:53:00.032Z,99704.03
2023-05-24T04:54:02.343Z,99708.22
2023-05-24T04:55:05.287Z,99706.19
2023-05-24T04:56:10.535Z,99707.67
2023-05-24T04:57:13.007Z,99713.51
2023-05-24T04:58:16.056Z,99705.23
2023-05-24T04:59:18.323Z,99705.70
2023-05-24T05:00:20.649Z,99712.37
2023-05-24T05:01:23.025Z,99713.86
2023-05-24T05:02:26.317Z,99709.94
2023-05-24T05:03:30.005Z,99708.71
2023-05-24T05:04:33.362Z,99710.02
2023-05-24T05:05:36.254Z,99715.89
2023-05-24T05:06:38.902Z,99705.51
2023-05-24T05:07:42.515Z,99713.88
2023-05-24T05:08:44.755Z,99712.47
2023-05-24T05:09:47.008Z,99713.75
2023-05-24T05:10:49.895Z,99712.37
2023-05-24T05:11:52.333Z,99715.34
2023-05-24T05:12:54.644Z,99711.23
2023-05-24T05:13:57.374Z,99714.19
2023-05-24T05:14:59.935Z,99711.27
2023-05-24T05:16:02.614Z,99714.64
2023-05-24T05:17:06.012Z,99703.41
2023-05-24T05:18:08.430Z,99699.68
2023-05-24T05:19:12.787Z,99705.55
2023-05-24T05:20:16.737Z,99701.22
2023-05-24T05:21:18.982Z,99698.94
2023-05-24T05:22:21.190Z,99700.24
2023-05-24T05:23:23.393Z,99697.14
2023-05-24T05:24:25.823Z,99706.53
2023-05-24T05:25:28.144Z,99705.96
2023-05-24T05:26:30.859Z,99703.95
2023-05-24T05:27:33.335Z,99705.69
2023-05-24T05:28:35.609Z,99701.39
2023-05-24T05:29:37.936Z,99704.36
2023-05-24T05:30:40.351Z,99697.50
2023-05-24T05:31:42.659Z,99701.49
2023-05-24T05:32:46.008Z,99700.05
2023-05-24T05:33:48.808Z,99697.56
2023-05-24T05:34:51.022Z,99703.21
2023-05-24T05:35:54.910Z,99703.48
2023-05-24T05:36:57.948Z,99705.58
2023-05-24T05:38:00.803Z,99701.63
2023-05-24T05:40:12.468Z,99702.97
2023-05-24T05:41:14.875Z,99709.22
2023-05-24T05:42:17.111Z,99711.32
2023-05-24T05:43:19.816Z,99721.36
2023-05-24T05:44:22.027Z,99718.91
2023-05-24T05:45:24.318Z,99716.41
2023-05-24T05:46:26.766Z,99718.50
2023-05-24T05:47:28.973Z,99722.28
2023-05-24T05:48:31.484Z,99717.08
2023-05-24T05:49:33.676Z,99724.22
2023-05-24T05:50:35.992Z,99728.80
2023-05-24T05:51:38.799Z,99729.45
2023-05-24T05:52:42.089Z,99726.55
2023-05-24T05:53:44.655Z,99727.00
2023-05-24T05:54:46.687Z,99726.58
2023-05-24T05:55:49.239Z,99726.00
2023-05-24T05:56:51.487Z,99725.38
2023-05-24T05:57:53.774Z,99728.91
2023-05-24T05:58:56.100Z,99730.61
2023-05-24T05:59:58.283Z,99733.30
2023-05-24T06:01:00.807Z,99732.47
2023-05-24T06:02:04.129Z,99730.59
2023-05-24T06:03:07.865Z,99730.38
2023-05-24T06:04:10.681Z,99727.86
2023-05-24T06:05:14.067Z,99723.48
2023-05-24T06:06:17.080Z,99729.95
2023-05-24T06:07:19.407Z,99729.53
2023-05-24T06:08:21.688Z,99724.48
2023-05-24T06:09:24.268Z,99728.23
2023-05-24T06:10:26.658Z,99733.67
2023-05-24T06:11:29.462Z,99736.34
2023-05-24T06:12:31.944Z,99726.50
2023-05-24T06:13:34.086Z,99722.93
2023-05-24T06:14:36.690Z,99730.84
2023-05-24T06:15:39.502Z,99721.83
2023-05-24T06:16:41.793Z,99729.14
2023-05-24T06:17:44.215Z,99728.31
2023-05-24T06:18:57.267Z,99725.97
2023-05-24T06:19:51.537Z,99725.53
2023-05-24T06:20:54.349Z,99728.66
2023-05-24T06:21:57.877Z,99729.27
2023-05-24T06:23:01.315Z,99729.88
2023-05-24T06:24:03.848Z,99732.41
2023-05-24T06:25:07.118Z,99728.84
2023-05-24T06:26:10.149Z,99730.72
2023-05-24T06:27:13.876Z,99723.83
2023-05-24T06:28:19.026Z,99732.23
2023-05-24T06:29:21.317Z,99729.70
2023-05-24T06:30:25.776Z,99729.70
2023-05-24T06:33:38.396Z,99726.61
2023-05-24T06:34:45.444Z,99719.48
2023-05-24T06:35:48.338Z,99722.41
2023-05-24T06:36:52.207Z,99718.87
2023-05-24T06:37:55.640Z,99721.80
2023-05-24T06:38:57.863Z,99716.59
2023-05-24T06:40:00.320Z,99721.38
2023-05-24T06:42:11.981Z,99719.48
2023-05-24T06:43:18.456Z,99724.55
2023-05-24T06:44:26.567Z,99722.06
2023-05-24T06:45:30.585Z,99725.20
2023-05-24T06:46:34.487Z,99723.53
2023-05-24T06:47:40.252Z,99724.56
2023-05-24T06:48:42.890Z,99721.04
2023-05-24T06:49:47.241Z,99735.67
2023-05-24T06:50:50.607Z,99721.47
2023-05-24T06:51:52.890Z,99723.77
2023-05-24T06:52:55.741Z,99726.72
2023-05-24T06:54:04.429Z,99727.76
2023-05-24T06:55:11.024Z,99725.88
2023-05-24T06:56:14.252Z,99718.98
2023-05-24T06:57:18.797Z,99729.22
2023-05-24T06:58:24.170Z,99727.34
2023-05-24T06:59:27.829Z,99721.06
2023-05-24T07:00:30.230Z,99725.04
2023-05-24T07:01:36.281Z,99725.22
2023-05-24T07:02:39.140Z,99725.41
2023-05-24T07:04:50.774Z,99721.98
2023-05-24T07:05:53.020Z,99730.56
2023-05-24T07:06:55.451Z,99724.27
2023-05-24T07:07:57.576Z,99723.41
2023-05-24T07:09:01.580Z,99731.31
2023-05-24T07:10:08.812Z,99734.00
2023-05-24T07:11:11.723Z,99738.34
2023-05-24T07:12:16.943Z,99733.69
2023-05-24T07:13:22.208Z,99736.38
2023-05-24T07:14:25.967Z,99731.94
2023-05-24T07:15:28.377Z,99730.86
2023-05-24T07:16:32.394Z,99729.38
2023-05-24T07:17:34.779Z,99726.59
2023-05-24T07:18:37.692Z,99730.11
2023-05-24T07:19:40.517Z,99737.61
2023-05-24T07:20:43.809Z,99735.88
2023-05-24T07:21:46.603Z,99735.00
2023-05-24T07:22:53.408Z,99727.19
2023-05-24T07:23:56.856Z,99728.42
2023-05-24T07:25:00.106Z,99718.37
2023-05-24T07:26:04.217Z,99726.09
2023-05-24T07:27:06.451Z,99726.46
2023-05-24T07:28:08.763Z,99728.98
2023-05-24T07:29:10.960Z,99722.25
2023-05-24T07:30:24.053Z,99728.53
2023-05-24T07:31:18.558Z,99721.20
2023-05-24T07:32:21.008Z,99724.97
2023-05-24T07:33:23.088Z,99721.64
2023-05-24T07:34:26.278Z,99727.09
2023-05-24T07:35:28.721Z,99719.73
2023-05-24T07:36:34.364Z,99721.64
2023-05-24T07:37:35.719Z,99724.97
2023-05-24T07:38:37.819Z,99720.56
2023-05-24T07:39:40.109Z,99733.14
2023-05-24T07:40:42.860Z,99729.14
2023-05-24T07:41:45.499Z,99721.56
2023-05-24T07:42:47.846Z,99730.37
2023-05-24T07:43:50.780Z,99726.56
2023-05-24T07:44:53.847Z,99726.16
2023-05-24T07:46:03.162Z,99730.31
2023-05-24T07:47:08.160Z,99717.08
2023-05-24T07:48:12.214Z,99730.62
2023-05-24T07:49:15.427Z,99728.28
2023-05-24T07:50:18.736Z,99726.16
2023-05-24T07:51:21.070Z,99724.06
2023-05-24T07:52:23.828Z,99722.98
2023-05-24T07:53:27.221Z,99723.61
2023-05-24T07:54:29.682Z,99726.94
2023-05-24T07:55:32.037Z,99726.48
2023-05-24T07:56:34.505Z,99725.20
2023-05-24T07:57:40.867Z,99725.59
2023-05-24T07:58:47.375Z,99728.46
2023-05-24T07:59:53.129Z,99717.09
2023-05-24T08:00:55.373Z,99726.27
2023-05-24T08:01:57.633Z,99728.75
2023-05-24T08:02:59.891Z,99727.45
2023-05-24T08:04:02.937Z,99728.05
2023-05-24T08:05:07.169Z,99729.48
2023-05-24T08:06:12.135Z,99734.49
2023-05-24T08:07:14.648Z,99728.61
2023-05-24T08:08:17.164Z,99720.81
2023-05-24T08:09:22.089Z,99724.14
2023-05-24T08:10:24.823Z,99731.63
2023-05-24T08:11:28.092Z,99739.36
2023-05-24T08:12:32.492Z,99735.33
2023-05-24T08:13:35.020Z,99731.34
2023-05-24T08:14:41.356Z,99729.80
2023-05-24T08:15:44.822Z,99738.37
2023-05-24T08:16:51.191Z,99729.72
2023-05-24T08:17:58.140Z,99740.77
2023-05-24T08:20:20.772Z,99730.17
2023-05-24T08:21:24.521Z,99728.61
2023-05-24T08:22:27.249Z,99728.95
2023-05-24T08:23:29.994Z,99731.22
2023-05-24T08:24:33.329Z,99729.92
2023-05-24T08:25:38.224Z,99726.55
2023-05-24T08:26:42.933Z,99734.27
2023-05-24T08:27:49.805Z,99729.99
2023-05-24T08:28:53.304Z,99732.26
2023-05-24T08:29:57.141Z,99726.33
2023-05-24T08:30:59.808Z,99737.63
2023-05-24T08:33:12.840Z,99722.20
2023-05-24T08:34:15.337Z,99724.69
2023-05-24T08:35:22.083Z,99721.70
2023-05-24T08:36:28.586Z,99732.42
2023-05-24T08:38:42.623Z,99718.78
2023-05-24T08:39:47.079Z,99722.08
2023-05-24T08:40:51.762Z,99719.34
2023-05-24T08:42:08.798Z,99721.23
2023-05-24T08:43:01.560Z,99721.48
2023-05-24T08:44:07.037Z,99720.06
2023-05-24T08:46:23.631Z,99715.30
2023-05-24T08:47:27.755Z,99717.67
2023-05-24T08:48:31.171Z,99716.00
2023-05-24T08:50:53.089Z,99709.50
2023-05-24T08:53:09.851Z,99714.25
2023-05-24T08:54:12.286Z,99729.31
2023-05-24T08:55:14.818Z,99718.38
2023-05-24T08:56:18.086Z,99715.19
2023-05-24T08:57:22.341Z,99714.97
2023-05-24T08:58:25.254Z,99714.72
2023-05-24T08:59:28.685Z,99721.86
2023-05-24T09:00:33.232Z,99715.30
2023-05-24T09:01:37.313Z,99725.18
2023-05-24T09:02:41.790Z,99721.61
2023-05-24T09:03:46.410Z,99728.13
2023-05-24T09:04:50.268Z,99732.17
2023-05-24T09:05:52.583Z,99718.97
2023-05-24T09:06:57.318Z,99728.47
2023-05-24T09:08:00.049Z,99720.99
2023-05-24T09:09:03.367Z,99726.92
2023-05-24T09:11:17.888Z,99717.30
2023-05-24T09:12:35.596Z,99713.78
2023-05-24T09:13:26.853Z,99718.87
2023-05-24T09:14:29.298Z,99713.52
2023-05-24T09:15:32.644Z,99718.61
2023-05-24T09:16:37.365Z,99720.12
2023-05-24T09:17:42.168Z,99721.42
2023-05-24T09:18:46.997Z,99724.61
2023-05-24T09:19:53.660Z,99726.75
2023-05-24T09:20:57.791Z,99724.02
2023-05-24T09:22:02.160Z,99725.06
2023-05-24T09:23:07.359Z,99720.69
2023-05-24T09:24:12.192Z,99726.98
2023-05-24T09:25:14.452Z,99726.98
2023-05-24T09:26:20.565Z,99720.69
2023-05-24T09:27:24.991Z,99728.88
2023-05-24T09:28:32.618Z,99725.06
2023-05-24T09:29:42.232Z,99725.06
2023-05-24T09:30:58.268Z,99711.42
2023-05-24T09:32:02.420Z,99724.02
2023-05-24T09:33:12.489Z,99724.39
2023-05-24T09:34:16.904Z,99728.31
2023-05-24T09:35:19.705Z,99733.56
2023-05-24T09:36:25.268Z,99724.28
2023-05-24T09:37:32.304Z,99726.20
2023-05-24T09:38:33.062Z,99724.06
2023-05-24T09:39:36.789Z,99719.44
2023-05-24T09:40:39.323Z,99723.47
2023-05-24T09:41:43.197Z,99724.28
2023-05-24T09:42:45.983Z,99721.80
2023-05-24T09:43:49.294Z,99731.04
2023-05-24T09:45:03.798Z,99723.09
2023-05-24T09:46:08.486Z,99726.04
2023-05-24T09:47:26.721Z,99727.13
2023-05-24T09:48:32.579Z,99713.69
2023-05-24T09:49:38.177Z,99720.23
2023-05-24T09:50:40.915Z,99732.45
2023-05-24T09:51:43.499Z,99722.34
2023-05-24T09:52:45.797Z,99733.25
2023-05-24T09:53:48.318Z,99726.15
2023-05-24T09:54:51.500Z,99732.45
2023-05-24T09:55:54.701Z,99729.94
2023-05-24T09:57:03.403Z,99731.23
2023-05-24T09:58:07.861Z,99728.12
2023-05-24T09:59:10.193Z,99747.22
2023-05-24T10:00:16.074Z,99744.14
2023-05-24T10:01:22.153Z,99746.25
2023-05-24T10:02:25.673Z,99738.06
2023-05-24T10:03:29.061Z,99741.03
2023-05-24T10:04:34.358Z,99735.58
2023-05-24T10:05:38.240Z,99732.25
2023-05-24T10:06:42.697Z,99733.55
2023-05-24T10:07:45.994Z,99741.11
2023-05-24T10:08:48.176Z,99729.38
2023-05-24T10:09:50.652Z,99731.48
2023-05-24T10:10:55.275Z,99736.94
2023-05-24T10:11:57.622Z,99736.94
2023-05-24T10:13:01.248Z,99739.91
2023-05-24T10:14:09.087Z,99735.50
2023-05-24T10:15:11.780Z,99740.97
2023-05-24T10:16:15.220Z,99733.02
2023-05-24T10:17:17.472Z,99732.42
2023-05-24T10:18:20.911Z,99729.70
2023-05-24T10:19:27.595Z,99740.79
2023-05-24T10:20:31.324Z,99732.01
2023-05-24T10:21:35.842Z,99728.44
2023-05-24T10:23:55.093Z,99726.48
2023-05-24T10:24:57.949Z,99737.08
2023-05-24T10:26:08.004Z,99724.28
2023-05-24T10:27:13.930Z,99737.67
2023-05-24T10:28:17.445Z,99746.70
2023-05-24T10:29:24.444Z,99741.63
2023-05-24T10:30:34.612Z,99733.23
2023-05-24T10:31:39.174Z,99736.80
2023-05-24T10:32:44.449Z,99734.07
2023-05-24T10:33:47.561Z,99734.28
2023-05-24T10:34:50.635Z,99729.03
2023-05-24T10:35:53.817Z,99727.39
2023-05-24T10:38:14.572Z,99730.67
2023-05-24T10:39:21.259Z,99733.30
2023-05-24T10:40:24.027Z,99742.53
2023-05-24T10:41:28.955Z,99743.38
2023-05-24T10:42:31.421Z,99745.51
2023-05-24T10:43:37.988Z,99742.15
2023-05-24T10:44:42.587Z,99744.28
2023-05-24T10:45:50.868Z,99748.30
2023-05-24T10:48:37.241Z,99744.66
2023-05-24T10:49:50.636Z,99751.57
2023-05-24T10:50:53.711Z,99750.73
2023-05-24T10:53:19.049Z,99737.00
2023-05-24T10:54:24.513Z,99733.59
2023-05-24T10:55:27.716Z,99742.02
2023-05-24T10:56:29.960Z,99738.69
2023-05-24T10:57:32.348Z,99733.23
2023-05-24T10:58:43.913Z,99745.19
2023-05-24T10:59:46.201Z,99748.16
2023-05-24T11:00:51.889Z,99736.62
2023-05-24T11:01:58.522Z,99749.41
2023-05-24T11:03:03.947Z,99744.20
2023-05-24T11:04:09.850Z,99747.16
2023-05-24T11:05:12.240Z,99741.08
2023-05-24T11:06:15.700Z,99745.94
2023-05-24T11:07:18.627Z,99745.94
2023-05-24T11:08:32.296Z,99748.90
2023-05-24T11:09:35.859Z,99748.27
2023-05-24T11:10:39.319Z,99757.52
2023-05-24T11:11:44.434Z,99755.24
2023-05-24T11:12:46.856Z,99754.64
2023-05-24T11:13:53.586Z,99757.58
2023-05-24T11:14:55.854Z,99753.20
2023-05-24T11:15:58.079Z,99767.88
2023-05-24T11:17:00.575Z,99762.00
2023-05-24T11:18:12.622Z,99768.53
2023-05-24T11:19:22.920Z,99763.28
2023-05-24T11:20:25.802Z,99764.13
2023-05-24T11:21:28.179Z,99758.88
2023-05-24T11:22:32.742Z,99768.98
2023-05-24T11:23:38.366Z,99761.84
2023-05-24T11:24:41.724Z,99756.63
2023-05-24T11:25:48.692Z,99763.13
2023-05-24T11:26:58.092Z,99759.36
2023-05-24T11:28:00.795Z,99759.36
2023-05-24T11:29:05.338Z,99753.91
2023-05-24T11:30:10.786Z,99749.27
2023-05-24T11:31:13.151Z,99754.71
2023-05-24T11:33:33.660Z,99736.01
2023-05-24T11:34:35.864Z,99753.51
2023-05-24T11:35:38.100Z,99756.23
2023-05-24T11:36:41.530Z,99740.92
2023-05-24T11:37:46.710Z,99746.62
2023-05-24T11:38:48.764Z,99748.50
2023-05-24T11:39:51.348Z,99749.34
2023-05-24T11:40:54.310Z,99752.27
2023-05-24T11:41:56.807Z,99752.27
2023-05-24T11:42:59.087Z,99748.94
2023-05-24T11:44:01.240Z,99747.27
2023-05-24T11:45:05.369Z,99746.66
2023-05-24T11:46:08.597Z,99748.78
2023-05-24T11:47:12.844Z,99746.90
2023-05-24T11:48:15.377Z,99748.78
2023-05-24T11:49:19.556Z,99746.90
2023-05-24T11:50:45.976Z,99734.92
2023-05-24T11:51:31.559Z,99741.21
2023-05-24T11:52:41.861Z,99733.04
2023-05-24T11:53:46.398Z,99734.11
2023-05-24T11:54:49.644Z,99734.72
2023-05-24T11:55:56.456Z,99736.60
2023-05-24T11:56:59.263Z,99726.55
2023-05-24T11:58:04.177Z,99728.19
2023-05-24T11:59:18.417Z,99725.46
2023-05-24T12:00:25.804Z,99725.46
2023-05-24T12:01:28.954Z,99721.69
2023-05-24T12:02:33.044Z,99726.94
2023-05-24T12:03:36.696Z,99724.21
2023-05-24T12:04:39.258Z,99719.56
2023-05-24T12:05:41.764Z,99719.56
2023-05-24T12:09:14.433Z,99719.28
2023-05-24T12:10:17.392Z,99716.48
2023-05-24T12:11:21.817Z,99712.68
2023-05-24T12:12:30.682Z,99712.47
2023-05-24T12:13:29.892Z,99706.78
2023-05-24T12:14:34.816Z,99707.62
2023-05-24T12:15:37.035Z,99706.34
2023-05-24T12:16:45.091Z,99708.02
2023-05-24T12:17:48.131Z,99706.09
2023-05-24T12:19:02.984Z,99701.73
2023-05-24T12:19:56.385Z,99704.66
2023-05-24T12:20:59.050Z,99702.17
2023-05-24T12:23:15.864Z,99697.48
2023-05-24T12:24:18.130Z,99703.06
2023-05-24T12:25:22.361Z,99694.28
2023-05-24T12:26:26.114Z,99698.05
2023-05-24T12:27:28.825Z,99699.94
2023-05-24T12:28:35.352Z,99696.41
2023-05-24T12:29:46.757Z,99696.62
2023-05-24T12:30:49.582Z,99695.78
2023-05-24T12:31:52.321Z,99699.58
2023-05-24T12:32:55.371Z,99702.52
2023-05-24T12:33:57.697Z,99704.42
2023-05-24T12:35:00.023Z,99702.75
2023-05-24T12:36:02.333Z,99697.06
2023-05-24T12:37:04.672Z,99700.86
2023-05-24T12:38:09.011Z,99703.34
2023-05-24T12:40:34.252Z,99700.49
2023-05-24T12:41:37.213Z,99698.50
2023-05-24T12:42:39.642Z,99701.86
2023-05-24T12:43:42.163Z,99696.17
2023-05-24T12:44:44.959Z,99696.77
2023-05-24T12:45:47.430Z,99691.56
2023-05-24T12:46:49.828Z,99688.84
2023-05-24T12:47:54.425Z,99688.84
2023-05-24T12:48:57.746Z,99688.00
2023-05-24T12:50:00.168Z,99695.13
2023-05-24T12:51:02.523Z,99700.94
2023-05-24T12:52:05.015Z,99695.28
2023-05-24T12:53:08.477Z,99691.51
2023-05-24T12:54:10.728Z,99688.31
2023-05-24T12:55:16.161Z,99687.26
2023-05-24T12:56:19.039Z,99688.09
2023-05-24T12:57:23.454Z,99690.59
2023-05-24T12:58:26.190Z,99683.25
2023-05-24T12:59:29.649Z,99683.84
2023-05-24T13:00:32.044Z,99680.08
2023-05-24T13:01:34.410Z,99679.84
2023-05-24T13:02:39.496Z,99679.03
2023-05-24T13:03:41.536Z,99681.52
2023-05-24T13:05:58.025Z,99684.58
2023-05-24T13:07:01.492Z,99678.79
2023-05-24T13:08:04.393Z,99683.64
2023-05-24T13:10:30.135Z,99671.78
2023-05-24T13:11:32.238Z,99673.34
2023-05-24T13:12:34.477Z,99678.58
2023-05-24T13:13:37.083Z,99680.65
2023-05-24T13:14:39.312Z,99679.60
2023-05-24T13:15:44.085Z,99677.23
2023-05-24T13:16:47.394Z,99678.91